Terminal Aerodrome Forecast
Issued by NWS

Home | Current Version | Previous Version | Text Only | Print | Product List | Glossary On
Versions: 1 2 3 4 5 6 7 8 9 10 11 12 13 14 15 16 17 18 19 20 21
000
FTUS46 KSGX 020408 CCA
TAFCRQ
TAF COR
KCRQ 020408Z 0204/0224 VRB04KT P6SM SCT022
     FM020500 VRB03KT P6SM BKN020
     FM021700 VRB04KT P6SM SCT025
     FM022000 25009KT P6SM FEW025=

USA.gov is the U.S. government's official web portal to all federal, state and local government web resources and services.